sensor_id;sensor_type;location;lat;lon;timestamp;P1;durP1;ratioP1;P2;durP2;ratioP2
4198;SDS011;2113;50.946;14.610;2023-11-22T00:00:57;29.20;;;15.45;;
4198;SDS011;2113;50.946;14.610;2023-11-22T00:03:25;32.20;;;15.93;;
4198;SDS011;2113;50.946;14.610;2023-11-22T00:05:55;34.08;;;16.98;;
4198;SDS011;2113;50.946;14.610;2023-11-22T00:08:23;33.05;;;14.55;;
4198;SDS011;2113;50.946;14.610;2023-11-22T00:10:51;33.03;;;15.25;;
4198;SDS011;2113;50.946;14.610;2023-11-22T00:13:19;24.15;;;14.25;;
4198;SDS011;2113;50.946;14.610;2023-11-22T00:15:47;24.05;;;14.45;;
4198;SDS011;2113;50.946;14.610;2023-11-22T00:18:16;26.77;;;15.55;;
4198;SDS011;2113;50.946;14.610;2023-11-22T00:20:44;28.77;;;14.38;;
4198;SDS011;2113;50.946;14.610;2023-11-22T00:23:16;28.75;;;14.95;;
4198;SDS011;2113;50.946;14.610;2023-11-22T00:25:44;27.80;;;14.32;;
4198;SDS011;2113;50.946;14.610;2023-11-22T00:28:12;29.35;;;14.40;;
4198;SDS011;2113;50.946;14.610;2023-11-22T00:30:40;27.35;;;14.32;;
4198;SDS011;2113;50.946;14.610;2023-11-22T00:33:09;31.77;;;17.10;;
4198;SDS011;2113;50.946;14.610;2023-11-22T00:35:37;34.00;;;16.48;;
4198;SDS011;2113;50.946;14.610;2023-11-22T00:38:05;31.02;;;16.45;;
4198;SDS011;2113;50.946;14.610;2023-11-22T00:40:35;39.83;;;18.75;;
4198;SDS011;2113;50.946;14.610;2023-11-22T00:43:03;34.78;;;16.92;;
4198;SDS011;2113;50.946;14.610;2023-11-22T00:45:31;34.42;;;17.10;;
4198;SDS011;2113;50.946;14.610;2023-11-22T00:48:00;35.67;;;17.95;;
4198;SDS011;2113;50.946;14.610;2023-11-22T00:50:28;41.40;;;19.27;;
4198;SDS011;2113;50.946;14.610;2023-11-22T00:52:57;34.55;;;16.00;;
4198;SDS011;2113;50.946;14.610;2023-11-22T00:55:25;41.83;;;18.30;;
4198;SDS011;2113;50.946;14.610;2023-11-22T00:57:55;37.33;;;19.77;;
4198;SDS011;2113;50.946;14.610;2023-11-22T01:00:30;40.03;;;19.17;;
4198;SDS011;2113;50.946;14.610;2023-11-22T01:02:58;42.47;;;19.80;;
4198;SDS011;2113;50.946;14.610;2023-11-22T01:05:27;40.80;;;19.33;;
4198;SDS011;2113;50.946;14.610;2023-11-22T01:07:56;40.92;;;17.73;;
4198;SDS011;2113;50.946;14.610;2023-11-22T01:10:24;41.85;;;20.60;;
4198;SDS011;2113;50.946;14.610;2023-11-22T01:12:52;40.08;;;17.92;;
4198;SDS011;2113;50.946;14.610;2023-11-22T01:24:16;33.85;;;14.95;;
4198;SDS011;2113;50.946;14.610;2023-11-22T01:26:45;29.02;;;15.98;;
4198;SDS011;2113;50.946;14.610;2023-11-22T01:29:14;34.70;;;16.75;;
4198;SDS011;2113;50.946;14.610;2023-11-22T01:31:42;37.30;;;17.48;;
4198;SDS011;2113;50.946;14.610;2023-11-22T01:34:11;35.10;;;15.63;;
4198;SDS011;2113;50.946;14.610;2023-11-22T01:36:41;31.98;;;16.25;;
4198;SDS011;2113;50.946;14.610;2023-11-22T01:39:11;35.85;;;19.23;;
4198;SDS011;2113;50.946;14.610;2023-11-22T01:41:42;41.03;;;19.77;;
4198;SDS011;2113;50.946;14.610;2023-11-22T01:44:12;35.22;;;17.85;;
4198;SDS011;2113;50.946;14.610;2023-11-22T01:46:40;31.67;;;17.70;;
4198;SDS011;2113;50.946;14.610;2023-11-22T01:49:10;41.95;;;20.50;;
4198;SDS011;2113;50.946;14.610;2023-11-22T01:51:38;38.22;;;18.73;;
4198;SDS011;2113;50.946;14.610;2023-11-22T01:54:08;40.58;;;19.02;;
4198;SDS011;2113;50.946;14.610;2023-11-22T01:56:37;31.88;;;16.23;;
4198;SDS011;2113;50.946;14.610;2023-11-22T01:59:08;35.08;;;17.77;;
4198;SDS011;2113;50.946;14.610;2023-11-22T02:01:36;34.05;;;17.02;;
4198;SDS011;2113;50.946;14.610;2023-11-22T02:04:04;31.08;;;16.08;;
4198;SDS011;2113;50.946;14.610;2023-11-22T02:06:33;32.13;;;18.02;;
4198;SDS011;2113;50.946;14.610;2023-11-22T02:09:02;38.65;;;18.23;;
4198;SDS011;2113;50.946;14.610;2023-11-22T02:11:30;30.40;;;15.40;;
4198;SDS011;2113;50.946;14.610;2023-11-22T02:13:59;32.20;;;15.63;;
4198;SDS011;2113;50.946;14.610;2023-11-22T02:16:28;30.17;;;15.32;;
4198;SDS011;2113;50.946;14.610;2023-11-22T02:18:57;32.08;;;16.27;;
4198;SDS011;2113;50.946;14.610;2023-11-22T02:21:25;34.88;;;16.30;;
4198;SDS011;2113;50.946;14.610;2023-11-22T02:23:54;31.88;;;18.33;;
4198;SDS011;2113;50.946;14.610;2023-11-22T02:26:23;34.47;;;16.80;;
4198;SDS011;2113;50.946;14.610;2023-11-22T02:28:53;29.83;;;17.27;;
4198;SDS011;2113;50.946;14.610;2023-11-22T02:31:21;35.75;;;16.63;;
4198;SDS011;2113;50.946;14.610;2023-11-22T02:33:50;32.50;;;16.65;;
4198;SDS011;2113;50.946;14.610;2023-11-22T02:36:19;38.38;;;17.27;;
4198;SDS011;2113;50.946;14.610;2023-11-22T02:38:47;32.00;;;16.60;;
4198;SDS011;2113;50.946;14.610;2023-11-22T02:41:16;37.88;;;18.10;;
4198;SDS011;2113;50.946;14.610;2023-11-22T02:43:45;38.20;;;16.80;;
4198;SDS011;2113;50.946;14.610;2023-11-22T02:46:13;41.90;;;19.33;;
4198;SDS011;2113;50.946;14.610;2023-11-22T02:48:42;41.42;;;20.13;;
4198;SDS011;2113;50.946;14.610;2023-11-22T02:51:11;40.97;;;18.85;;
4198;SDS011;2113;50.946;14.610;2023-11-22T02:53:40;42.28;;;20.25;;
4198;SDS011;2113;50.946;14.610;2023-11-22T02:56:11;39.53;;;18.48;;
4198;SDS011;2113;50.946;14.610;2023-11-22T02:58:41;46.83;;;19.95;;
4198;SDS011;2113;50.946;14.610;2023-11-22T03:01:11;38.67;;;20.17;;
4198;SDS011;2113;50.946;14.610;2023-11-22T03:03:39;46.80;;;22.63;;
4198;SDS011;2113;50.946;14.610;2023-11-22T03:06:08;44.83;;;19.33;;
4198;SDS011;2113;50.946;14.610;2023-11-22T03:08:36;43.90;;;20.42;;
4198;SDS011;2113;50.946;14.610;2023-11-22T03:11:04;54.15;;;21.55;;
4198;SDS011;2113;50.946;14.610;2023-11-22T03:13:33;44.20;;;21.38;;
4198;SDS011;2113;50.946;14.610;2023-11-22T03:16:03;56.38;;;23.27;;
4198;SDS011;2113;50.946;14.610;2023-11-22T03:18:32;49.08;;;23.42;;
4198;SDS011;2113;50.946;14.610;2023-11-22T03:21:00;46.83;;;20.67;;
4198;SDS011;2113;50.946;14.610;2023-11-22T03:23:28;46.35;;;19.75;;
4198;SDS011;2113;50.946;14.610;2023-11-22T03:25:56;46.50;;;19.73;;
4198;SDS011;2113;50.946;14.610;2023-11-22T03:28:25;43.28;;;19.85;;
4198;SDS011;2113;50.946;14.610;2023-11-22T03:30:54;50.65;;;19.63;;
4198;SDS011;2113;50.946;14.610;2023-11-22T03:33:23;38.03;;;18.45;;
4198;SDS011;2113;50.946;14.610;2023-11-22T03:35:52;42.97;;;19.25;;
4198;SDS011;2113;50.946;14.610;2023-11-22T03:38:20;33.95;;;17.70;;
4198;SDS011;2113;50.946;14.610;2023-11-22T03:40:50;40.80;;;19.88;;
4198;SDS011;2113;50.946;14.610;2023-11-22T03:43:20;40.05;;;18.80;;
4198;SDS011;2113;50.946;14.610;2023-11-22T03:45:50;39.90;;;20.65;;
4198;SDS011;2113;50.946;14.610;2023-11-22T03:48:18;48.05;;;21.10;;
4198;SDS011;2113;50.946;14.610;2023-11-22T03:50:50;47.05;;;21.60;;
4198;SDS011;2113;50.946;14.610;2023-11-22T03:53:18;49.63;;;22.55;;
4198;SDS011;2113;50.946;14.610;2023-11-22T03:55:49;56.17;;;21.77;;
4198;SDS011;2113;50.946;14.610;2023-11-22T03:58:17;48.72;;;20.92;;
4198;SDS011;2113;50.946;14.610;2023-11-22T04:00:46;70.82;;;35.22;;
4198;SDS011;2113;50.946;14.610;2023-11-22T04:03:14;54.70;;;24.70;;
4198;SDS011;2113;50.946;14.610;2023-11-22T04:05:42;99.00;;;22.95;;
4198;SDS011;2113;50.946;14.610;2023-11-22T04:08:12;51.47;;;24.80;;
4198;SDS011;2113;50.946;14.610;2023-11-22T04:10:40;53.60;;;21.52;;
4198;SDS011;2113;50.946;14.610;2023-11-22T04:13:09;45.50;;;21.45;;
4198;SDS011;2113;50.946;14.610;2023-11-22T04:15:37;82.90;;;23.33;;
4198;SDS011;2113;50.946;14.610;2023-11-22T04:18:06;52.00;;;22.13;;
4198;SDS011;2113;50.946;14.610;2023-11-22T04:20:34;49.85;;;21.55;;
4198;SDS011;2113;50.946;14.610;2023-11-22T04:23:03;62.53;;;23.20;;
4198;SDS011;2113;50.946;14.610;2023-11-22T04:25:33;55.78;;;21.88;;
4198;SDS011;2113;50.946;14.610;2023-11-22T04:28:01;40.20;;;18.23;;
4198;SDS011;2113;50.946;14.610;2023-11-22T04:30:30;61.75;;;23.33;;
4198;SDS011;2113;50.946;14.610;2023-11-22T04:32:59;53.25;;;22.20;;
4198;SDS011;2113;50.946;14.610;2023-11-22T04:35:28;52.15;;;26.08;;
4198;SDS011;2113;50.946;14.610;2023-11-22T04:38:00;64.47;;;25.45;;
4198;SDS011;2113;50.946;14.610;2023-11-22T04:40:29;49.95;;;22.17;;
4198;SDS011;2113;50.946;14.610;2023-11-22T04:42:59;58.60;;;24.55;;
4198;SDS011;2113;50.946;14.610;2023-11-22T04:45:29;57.67;;;24.05;;
4198;SDS011;2113;50.946;14.610;2023-11-22T04:47:57;44.45;;;20.42;;
4198;SDS011;2113;50.946;14.610;2023-11-22T04:50:26;59.55;;;24.88;;
4198;SDS011;2113;50.946;14.610;2023-11-22T04:52:54;51.63;;;25.08;;
4198;SDS011;2113;50.946;14.610;2023-11-22T04:55:22;62.67;;;24.48;;
4198;SDS011;2113;50.946;14.610;2023-11-22T04:57:50;50.88;;;22.40;;
4198;SDS011;2113;50.946;14.610;2023-11-22T05:00:21;79.65;;;22.10;;
4198;SDS011;2113;50.946;14.610;2023-11-22T05:02:49;58.28;;;26.48;;
4198;SDS011;2113;50.946;14.610;2023-11-22T05:05:18;53.30;;;22.70;;
4198;SDS011;2113;50.946;14.610;2023-11-22T05:07:46;52.25;;;21.52;;
4198;SDS011;2113;50.946;14.610;2023-11-22T05:10:14;45.65;;;20.17;;
4198;SDS011;2113;50.946;14.610;2023-11-22T05:12:43;48.58;;;21.15;;
4198;SDS011;2113;50.946;14.610;2023-11-22T05:15:12;47.63;;;22.30;;
4198;SDS011;2113;50.946;14.610;2023-11-22T05:17:42;50.33;;;22.90;;
4198;SDS011;2113;50.946;14.610;2023-11-22T05:20:10;45.80;;;20.67;;
4198;SDS011;2113;50.946;14.610;2023-11-22T05:22:38;55.38;;;23.42;;
4198;SDS011;2113;50.946;14.610;2023-11-22T05:25:07;50.78;;;22.65;;
4198;SDS011;2113;50.946;14.610;2023-11-22T05:27:35;44.55;;;20.02;;
4198;SDS011;2113;50.946;14.610;2023-11-22T05:30:03;81.30;;;21.08;;
4198;SDS011;2113;50.946;14.610;2023-11-22T05:32:32;42.67;;;20.15;;
4198;SDS011;2113;50.946;14.610;2023-11-22T05:35:02;48.28;;;22.90;;
4198;SDS011;2113;50.946;14.610;2023-11-22T05:37:33;46.85;;;20.95;;
4198;SDS011;2113;50.946;14.610;2023-11-22T05:40:01;62.83;;;25.60;;
4198;SDS011;2113;50.946;14.610;2023-11-22T05:42:29;47.38;;;22.88;;
4198;SDS011;2113;50.946;14.610;2023-11-22T05:44:58;50.13;;;20.88;;
4198;SDS011;2113;50.946;14.610;2023-11-22T05:47:26;44.15;;;19.23;;
4198;SDS011;2113;50.946;14.610;2023-11-22T05:49:54;64.95;;;23.00;;
4198;SDS011;2113;50.946;14.610;2023-11-22T05:52:25;52.42;;;21.75;;
4198;SDS011;2113;50.946;14.610;2023-11-22T05:54:53;52.92;;;22.38;;
4198;SDS011;2113;50.946;14.610;2023-11-22T05:57:23;47.63;;;20.95;;
4198;SDS011;2113;50.946;14.610;2023-11-22T05:59:51;49.00;;;20.83;;
4198;SDS011;2113;50.946;14.610;2023-11-22T06:02:20;42.08;;;19.17;;
4198;SDS011;2113;50.946;14.610;2023-11-22T06:04:48;43.47;;;20.10;;
4198;SDS011;2113;50.946;14.610;2023-11-22T06:07:16;60.25;;;22.10;;
4198;SDS011;2113;50.946;14.610;2023-11-22T06:09:46;42.75;;;20.95;;
4198;SDS011;2113;50.946;14.610;2023-11-22T06:12:14;51.00;;;22.15;;
4198;SDS011;2113;50.946;14.610;2023-11-22T06:14:42;45.28;;;19.48;;
4198;SDS011;2113;50.946;14.610;2023-11-22T06:17:11;44.22;;;21.52;;
4198;SDS011;2113;50.946;14.610;2023-11-22T06:19:39;39.42;;;16.83;;
4198;SDS011;2113;50.946;14.610;2023-11-22T06:22:07;45.08;;;17.42;;
4198;SDS011;2113;50.946;14.610;2023-11-22T06:24:35;75.28;;;19.48;;
4198;SDS011;2113;50.946;14.610;2023-11-22T06:27:05;63.22;;;23.00;;
4198;SDS011;2113;50.946;14.610;2023-11-22T06:29:34;75.68;;;23.58;;
4198;SDS011;2113;50.946;14.610;2023-11-22T06:32:02;52.10;;;21.27;;
4198;SDS011;2113;50.946;14.610;2023-11-22T06:34:30;50.30;;;22.23;;
4198;SDS011;2113;50.946;14.610;2023-11-22T06:36:59;48.10;;;20.38;;
4198;SDS011;2113;50.946;14.610;2023-11-22T06:39:27;52.17;;;23.73;;
4198;SDS011;2113;50.946;14.610;2023-11-22T06:41:56;50.40;;;20.48;;
4198;SDS011;2113;50.946;14.610;2023-11-22T06:44:25;47.28;;;20.63;;
4198;SDS011;2113;50.946;14.610;2023-11-22T06:46:54;48.35;;;20.02;;
4198;SDS011;2113;50.946;14.610;2023-11-22T06:49:23;46.80;;;20.75;;
4198;SDS011;2113;50.946;14.610;2023-11-22T06:51:51;45.97;;;22.02;;
4198;SDS011;2113;50.946;14.610;2023-11-22T06:54:20;60.05;;;24.88;;
4198;SDS011;2113;50.946;14.610;2023-11-22T06:56:48;51.55;;;22.63;;
4198;SDS011;2113;50.946;14.610;2023-11-22T06:59:17;60.33;;;25.30;;
4198;SDS011;2113;50.946;14.610;2023-11-22T07:01:47;55.67;;;24.25;;
4198;SDS011;2113;50.946;14.610;2023-11-22T07:04:15;61.80;;;24.15;;
4198;SDS011;2113;50.946;14.610;2023-11-22T07:06:44;54.35;;;23.95;;
4198;SDS011;2113;50.946;14.610;2023-11-22T07:09:12;47.13;;;20.77;;
4198;SDS011;2113;50.946;14.610;2023-11-22T07:11:40;53.70;;;22.67;;
4198;SDS011;2113;50.946;14.610;2023-11-22T07:14:11;43.58;;;23.60;;
4198;SDS011;2113;50.946;14.610;2023-11-22T07:16:41;44.28;;;19.25;;
4198;SDS011;2113;50.946;14.610;2023-11-22T07:19:10;50.10;;;20.95;;
4198;SDS011;2113;50.946;14.610;2023-11-22T07:21:39;46.50;;;20.48;;
4198;SDS011;2113;50.946;14.610;2023-11-22T07:24:08;49.17;;;19.73;;
4198;SDS011;2113;50.946;14.610;2023-11-22T07:26:40;37.75;;;18.75;;
4198;SDS011;2113;50.946;14.610;2023-11-22T07:29:08;48.40;;;21.33;;
4198;SDS011;2113;50.946;14.610;2023-11-22T07:31:38;57.40;;;23.88;;
4198;SDS011;2113;50.946;14.610;2023-11-22T07:34:10;48.92;;;22.13;;
4198;SDS011;2113;50.946;14.610;2023-11-22T07:36:39;52.20;;;23.10;;
4198;SDS011;2113;50.946;14.610;2023-11-22T07:39:08;42.53;;;18.52;;
4198;SDS011;2113;50.946;14.610;2023-11-22T07:41:38;50.80;;;23.45;;
4198;SDS011;2113;50.946;14.610;2023-11-22T07:44:07;45.60;;;19.63;;
4198;SDS011;2113;50.946;14.610;2023-11-22T07:46:41;60.17;;;22.05;;
4198;SDS011;2113;50.946;14.610;2023-11-22T07:49:12;56.30;;;22.55;;
4198;SDS011;2113;50.946;14.610;2023-11-22T07:51:41;48.50;;;20.70;;
4198;SDS011;2113;50.946;14.610;2023-11-22T07:54:12;55.88;;;23.45;;
4198;SDS011;2113;50.946;14.610;2023-11-22T07:56:42;54.88;;;19.25;;
4198;SDS011;2113;50.946;14.610;2023-11-22T07:59:10;54.95;;;24.40;;
4198;SDS011;2113;50.946;14.610;2023-11-22T08:01:41;57.38;;;24.33;;
4198;SDS011;2113;50.946;14.610;2023-11-22T08:04:12;52.17;;;23.88;;
4198;SDS011;2113;50.946;14.610;2023-11-22T08:06:41;43.95;;;20.73;;
4198;SDS011;2113;50.946;14.610;2023-11-22T08:09:09;53.45;;;21.75;;
4198;SDS011;2113;50.946;14.610;2023-11-22T08:11:37;48.25;;;20.90;;
4198;SDS011;2113;50.946;14.610;2023-11-22T08:14:06;41.97;;;19.38;;
4198;SDS011;2113;50.946;14.610;2023-11-22T08:16:34;49.45;;;21.08;;
4198;SDS011;2113;50.946;14.610;2023-11-22T08:19:05;46.00;;;18.20;;
4198;SDS011;2113;50.946;14.610;2023-11-22T08:21:36;48.80;;;20.25;;
4198;SDS011;2113;50.946;14.610;2023-11-22T08:24:05;47.90;;;19.23;;
4198;SDS011;2113;50.946;14.610;2023-11-22T08:26:33;44.78;;;21.73;;
4198;SDS011;2113;50.946;14.610;2023-11-22T08:29:02;52.45;;;21.90;;
4198;SDS011;2113;50.946;14.610;2023-11-22T08:31:30;53.72;;;21.60;;
4198;SDS011;2113;50.946;14.610;2023-11-22T08:33:58;50.50;;;21.02;;
4198;SDS011;2113;50.946;14.610;2023-11-22T08:36:27;51.85;;;22.65;;
4198;SDS011;2113;50.946;14.610;2023-11-22T08:38:57;51.05;;;22.50;;
4198;SDS011;2113;50.946;14.610;2023-11-22T08:41:27;51.35;;;24.33;;
4198;SDS011;2113;50.946;14.610;2023-11-22T08:43:56;50.08;;;22.92;;
4198;SDS011;2113;50.946;14.610;2023-11-22T08:46:25;55.28;;;22.80;;
4198;SDS011;2113;50.946;14.610;2023-11-22T08:48:53;57.17;;;21.13;;
4198;SDS011;2113;50.946;14.610;2023-11-22T08:51:23;55.25;;;19.25;;
4198;SDS011;2113;50.946;14.610;2023-11-22T08:53:51;50.20;;;21.90;;
4198;SDS011;2113;50.946;14.610;2023-11-22T08:56:21;53.63;;;24.30;;
4198;SDS011;2113;50.946;14.610;2023-11-22T08:58:49;49.10;;;21.98;;
4198;SDS011;2113;50.946;14.610;2023-11-22T09:01:18;45.28;;;19.60;;
4198;SDS011;2113;50.946;14.610;2023-11-22T09:03:46;50.97;;;20.20;;
4198;SDS011;2113;50.946;14.610;2023-11-22T09:06:14;49.67;;;20.92;;
4198;SDS011;2113;50.946;14.610;2023-11-22T09:08:42;42.08;;;19.77;;
4198;SDS011;2113;50.946;14.610;2023-11-22T09:11:13;35.03;;;16.02;;
4198;SDS011;2113;50.946;14.610;2023-11-22T09:13:45;34.10;;;15.88;;
4198;SDS011;2113;50.946;14.610;2023-11-22T09:16:13;42.47;;;16.38;;
4198;SDS011;2113;50.946;14.610;2023-11-22T09:18:43;39.60;;;16.77;;
4198;SDS011;2113;50.946;14.610;2023-11-22T09:21:11;33.20;;;16.85;;
4198;SDS011;2113;50.946;14.610;2023-11-22T09:23:43;39.08;;;16.80;;
4198;SDS011;2113;50.946;14.610;2023-11-22T09:26:12;39.42;;;19.00;;
4198;SDS011;2113;50.946;14.610;2023-11-22T09:28:41;40.90;;;17.83;;
4198;SDS011;2113;50.946;14.610;2023-11-22T09:31:11;48.97;;;20.52;;
4198;SDS011;2113;50.946;14.610;2023-11-22T09:33:44;33.97;;;17.33;;
4198;SDS011;2113;50.946;14.610;2023-11-22T09:36:13;37.05;;;19.50;;
4198;SDS011;2113;50.946;14.610;2023-11-22T09:38:44;36.22;;;16.25;;
4198;SDS011;2113;50.946;14.610;2023-11-22T09:41:14;36.83;;;19.42;;
4198;SDS011;2113;50.946;14.610;2023-11-22T09:43:43;38.22;;;19.27;;
4198;SDS011;2113;50.946;14.610;2023-11-22T09:46:17;42.17;;;19.83;;
4198;SDS011;2113;50.946;14.610;2023-11-22T09:48:47;32.42;;;14.57;;
4198;SDS011;2113;50.946;14.610;2023-11-22T09:51:20;41.92;;;19.35;;
4198;SDS011;2113;50.946;14.610;2023-11-22T09:53:55;45.00;;;19.58;;
4198;SDS011;2113;50.946;14.610;2023-11-22T09:56:25;51.42;;;21.30;;
4198;SDS011;2113;50.946;14.610;2023-11-22T09:58:55;40.28;;;17.58;;
4198;SDS011;2113;50.946;14.610;2023-11-22T10:01:29;38.67;;;18.80;;
4198;SDS011;2113;50.946;14.610;2023-11-22T10:03:58;34.40;;;17.92;;
4198;SDS011;2113;50.946;14.610;2023-11-22T10:06:27;25.60;;;12.55;;
4198;SDS011;2113;50.946;14.610;2023-11-22T10:09:00;30.25;;;13.18;;
4198;SDS011;2113;50.946;14.610;2023-11-22T10:11:31;37.13;;;16.10;;
4198;SDS011;2113;50.946;14.610;2023-11-22T10:14:00;27.60;;;14.95;;
4198;SDS011;2113;50.946;14.610;2023-11-22T10:16:29;29.08;;;14.07;;
4198;SDS011;2113;50.946;14.610;2023-11-22T10:18:58;36.35;;;17.25;;
4198;SDS011;2113;50.946;14.610;2023-11-22T10:21:27;35.65;;;17.42;;
4198;SDS011;2113;50.946;14.610;2023-11-22T10:23:57;35.90;;;14.05;;
4198;SDS011;2113;50.946;14.610;2023-11-22T10:26:30;29.52;;;14.32;;
4198;SDS011;2113;50.946;14.610;2023-11-22T10:28:59;27.52;;;13.85;;
4198;SDS011;2113;50.946;14.610;2023-11-22T10:31:27;27.50;;;13.15;;
4198;SDS011;2113;50.946;14.610;2023-11-22T10:33:57;26.73;;;12.65;;
4198;SDS011;2113;50.946;14.610;2023-11-22T10:36:25;24.15;;;11.80;;
4198;SDS011;2113;50.946;14.610;2023-11-22T10:38:54;25.55;;;12.02;;
4198;SDS011;2113;50.946;14.610;2023-11-22T10:41:23;21.52;;;12.20;;
4198;SDS011;2113;50.946;14.610;2023-11-22T10:43:52;31.15;;;14.80;;
4198;SDS011;2113;50.946;14.610;2023-11-22T10:46:24;28.48;;;11.90;;
4198;SDS011;2113;50.946;14.610;2023-11-22T10:49:00;31.45;;;13.32;;
4198;SDS011;2113;50.946;14.610;2023-11-22T10:51:30;28.77;;;12.85;;
4198;SDS011;2113;50.946;14.610;2023-11-22T10:54:00;22.23;;;10.95;;
4198;SDS011;2113;50.946;14.610;2023-11-22T10:56:32;22.83;;;11.15;;
4198;SDS011;2113;50.946;14.610;2023-11-22T10:59:09;24.23;;;13.07;;
4198;SDS011;2113;50.946;14.610;2023-11-22T11:01:42;23.70;;;11.30;;
4198;SDS011;2113;50.946;14.610;2023-11-22T11:04:18;27.67;;;14.93;;
4198;SDS011;2113;50.946;14.610;2023-11-22T11:06:51;25.88;;;11.68;;
4198;SDS011;2113;50.946;14.610;2023-11-22T11:09:20;25.60;;;14.25;;
4198;SDS011;2113;50.946;14.610;2023-11-22T11:11:53;27.92;;;11.35;;
4198;SDS011;2113;50.946;14.610;2023-11-22T11:14:23;28.95;;;13.35;;
4198;SDS011;2113;50.946;14.610;2023-11-22T11:16:53;24.70;;;12.85;;
4198;SDS011;2113;50.946;14.610;2023-11-22T11:19:27;28.27;;;12.00;;
4198;SDS011;2113;50.946;14.610;2023-11-22T11:21:59;24.77;;;12.45;;
4198;SDS011;2113;50.946;14.610;2023-11-22T11:24:27;22.95;;;11.43;;
4198;SDS011;2113;50.946;14.610;2023-11-22T11:26:56;25.40;;;12.13;;
4198;SDS011;2113;50.946;14.610;2023-11-22T11:29:30;26.13;;;12.32;;
4198;SDS011;2113;50.946;14.610;2023-11-22T11:32:00;30.73;;;11.45;;
4198;SDS011;2113;50.946;14.610;2023-11-22T11:34:32;26.08;;;12.95;;
4198;SDS011;2113;50.946;14.610;2023-11-22T11:37:00;22.30;;;11.82;;
4198;SDS011;2113;50.946;14.610;2023-11-22T11:39:29;25.35;;;13.18;;
4198;SDS011;2113;50.946;14.610;2023-11-22T11:42:07;27.65;;;12.57;;
4198;SDS011;2113;50.946;14.610;2023-11-22T11:47:36;27.80;;;17.60;;
4198;SDS011;2113;50.946;14.610;2023-11-22T11:50:07;24.48;;;13.15;;
4198;SDS011;2113;50.946;14.610;2023-11-22T11:52:38;31.98;;;14.70;;
4198;SDS011;2113;50.946;14.610;2023-11-22T11:58:04;24.65;;;11.98;;
4198;SDS011;2113;50.946;14.610;2023-11-22T12:00:36;22.92;;;11.85;;
4198;SDS011;2113;50.946;14.610;2023-11-22T12:03:07;23.60;;;12.30;;
4198;SDS011;2113;50.946;14.610;2023-11-22T12:05:39;22.58;;;11.10;;
4198;SDS011;2113;50.946;14.610;2023-11-22T12:08:08;22.23;;;11.65;;
4198;SDS011;2113;50.946;14.610;2023-11-22T12:10:36;25.70;;;13.40;;
4198;SDS011;2113;50.946;14.610;2023-11-22T12:13:04;31.42;;;14.45;;
4198;SDS011;2113;50.946;14.610;2023-11-22T12:15:34;22.30;;;11.90;;
4198;SDS011;2113;50.946;14.610;2023-11-22T12:18:02;21.80;;;11.75;;
4198;SDS011;2113;50.946;14.610;2023-11-22T12:20:32;23.45;;;11.60;;
4198;SDS011;2113;50.946;14.610;2023-11-22T12:23:01;18.92;;;11.07;;
4198;SDS011;2113;50.946;14.610;2023-11-22T12:25:30;25.85;;;11.15;;
4198;SDS011;2113;50.946;14.610;2023-11-22T12:27:58;20.55;;;11.85;;
4198;SDS011;2113;50.946;14.610;2023-11-22T12:30:27;21.88;;;11.85;;
4198;SDS011;2113;50.946;14.610;2023-11-22T12:33:01;18.02;;;11.05;;
4198;SDS011;2113;50.946;14.610;2023-11-22T12:35:31;23.92;;;12.07;;
4198;SDS011;2113;50.946;14.610;2023-11-22T12:38:02;23.55;;;10.77;;
4198;SDS011;2113;50.946;14.610;2023-11-22T12:40:33;25.63;;;11.57;;
4198;SDS011;2113;50.946;14.610;2023-11-22T12:43:03;18.42;;;10.82;;
4198;SDS011;2113;50.946;14.610;2023-11-22T12:45:33;27.33;;;12.07;;
4198;SDS011;2113;50.946;14.610;2023-11-22T12:48:22;27.52;;;11.27;;
4198;SDS011;2113;50.946;14.610;2023-11-22T12:50:52;20.27;;;9.65;;
4198;SDS011;2113;50.946;14.610;2023-11-22T12:53:22;25.98;;;11.95;;
4198;SDS011;2113;50.946;14.610;2023-11-22T12:55:54;21.13;;;9.68;;
4198;SDS011;2113;50.946;14.610;2023-11-22T12:58:23;19.80;;;10.77;;
4198;SDS011;2113;50.946;14.610;2023-11-22T13:00:54;27.40;;;13.23;;
4198;SDS011;2113;50.946;14.610;2023-11-22T13:03:27;24.25;;;11.25;;
4198;SDS011;2113;50.946;14.610;2023-11-22T13:05:56;19.85;;;10.98;;
4198;SDS011;2113;50.946;14.610;2023-11-22T13:08:26;22.13;;;11.20;;
4198;SDS011;2113;50.946;14.610;2023-11-22T13:10:56;21.55;;;11.65;;
4198;SDS011;2113;50.946;14.610;2023-11-22T13:13:26;21.23;;;11.18;;
4198;SDS011;2113;50.946;14.610;2023-11-22T13:15:56;19.05;;;11.02;;
4198;SDS011;2113;50.946;14.610;2023-11-22T13:18:24;21.13;;;9.98;;
4198;SDS011;2113;50.946;14.610;2023-11-22T13:20:53;25.73;;;11.20;;
4198;SDS011;2113;50.946;14.610;2023-11-22T13:23:21;19.05;;;10.88;;
4198;SDS011;2113;50.946;14.610;2023-11-22T13:25:52;18.88;;;10.95;;
4198;SDS011;2113;50.946;14.610;2023-11-22T13:28:25;25.70;;;11.80;;
4198;SDS011;2113;50.946;14.610;2023-11-22T13:30:56;21.58;;;10.27;;
4198;SDS011;2113;50.946;14.610;2023-11-22T13:33:26;23.52;;;11.60;;
4198;SDS011;2113;50.946;14.610;2023-11-22T13:35:55;22.45;;;11.25;;
4198;SDS011;2113;50.946;14.610;2023-11-22T13:38:25;24.95;;;12.48;;
4198;SDS011;2113;50.946;14.610;2023-11-22T13:40:54;24.50;;;12.27;;
4198;SDS011;2113;50.946;14.610;2023-11-22T13:43:24;23.55;;;12.07;;
4198;SDS011;2113;50.946;14.610;2023-11-22T13:45:52;26.55;;;12.60;;
4198;SDS011;2113;50.946;14.610;2023-11-22T13:48:21;26.08;;;13.32;;
4198;SDS011;2113;50.946;14.610;2023-11-22T13:50:50;21.30;;;11.65;;
4198;SDS011;2113;50.946;14.610;2023-11-22T13:53:18;29.77;;;16.90;;
4198;SDS011;2113;50.946;14.610;2023-11-22T13:55:49;23.50;;;13.60;;
4198;SDS011;2113;50.946;14.610;2023-11-22T13:58:20;22.65;;;13.27;;
4198;SDS011;2113;50.946;14.610;2023-11-22T14:00:48;25.63;;;11.25;;
4198;SDS011;2113;50.946;14.610;2023-11-22T14:03:19;24.40;;;12.05;;
4198;SDS011;2113;50.946;14.610;2023-11-22T14:05:49;20.20;;;11.05;;
4198;SDS011;2113;50.946;14.610;2023-11-22T14:08:17;22.00;;;11.95;;
4198;SDS011;2113;50.946;14.610;2023-11-22T14:10:46;28.55;;;14.93;;
4198;SDS011;2113;50.946;14.610;2023-11-22T14:13:14;26.10;;;13.75;;
4198;SDS011;2113;50.946;14.610;2023-11-22T14:15:44;26.52;;;13.50;;
4198;SDS011;2113;50.946;14.610;2023-11-22T14:18:12;29.25;;;13.25;;
4198;SDS011;2113;50.946;14.610;2023-11-22T14:20:41;31.50;;;14.95;;
4198;SDS011;2113;50.946;14.610;2023-11-22T14:23:09;26.35;;;14.40;;
4198;SDS011;2113;50.946;14.610;2023-11-22T14:25:37;32.53;;;13.90;;
4198;SDS011;2113;50.946;14.610;2023-11-22T14:28:08;24.40;;;11.48;;
4198;SDS011;2113;50.946;14.610;2023-11-22T14:30:36;27.40;;;13.48;;
4198;SDS011;2113;50.946;14.610;2023-11-22T14:33:05;24.35;;;13.20;;
4198;SDS011;2113;50.946;14.610;2023-11-22T14:35:39;23.73;;;11.68;;
4198;SDS011;2113;50.946;14.610;2023-11-22T14:38:11;24.67;;;13.30;;
4198;SDS011;2113;50.946;14.610;2023-11-22T14:40:40;26.23;;;12.32;;
4198;SDS011;2113;50.946;14.610;2023-11-22T14:43:08;25.30;;;12.07;;
4198;SDS011;2113;50.946;14.610;2023-11-22T14:45:37;23.37;;;12.03;;
4198;SDS011;2113;50.946;14.610;2023-11-22T14:48:09;28.80;;;14.60;;
4198;SDS011;2113;50.946;14.610;2023-11-22T14:50:40;27.52;;;12.55;;
4198;SDS011;2113;50.946;14.610;2023-11-22T14:53:08;26.85;;;14.38;;
4198;SDS011;2113;50.946;14.610;2023-11-22T14:55:36;30.48;;;15.30;;
4198;SDS011;2113;50.946;14.610;2023-11-22T14:58:08;30.73;;;14.27;;
4198;SDS011;2113;50.946;14.610;2023-11-22T15:00:36;33.38;;;15.73;;
4198;SDS011;2113;50.946;14.610;2023-11-22T15:03:05;30.10;;;13.80;;